Database: COMPET-N - COOP - 3PL - 4PL - CNDOOM

WAD: Doom | Doom 2 | TNT | Plutonia | AV | HR | Scythe | MM | MM2 | Requiem | CE
Category: speed | nmare | max | nm100s | tyson | pacifist | fast | respawn | nomo | misc | built | all
Highscore: ALL | IWAD | PWAD | Country | Continent

Remove: wad | map | category | player | all
MapPlayerTimeDateFilenameCommentsDL
MAP03: InterlockJakub Machata1:03.002003-01-31mm03r103.zip - 240
MAP03: InterlockJakub Machata1:09.002003-01-30mm03r109.zip - 142
MAP04: The Garden TerminalJakub Machata1:19.002003-04-17he04-119.zip - 276
MAP03: InterlockJakub Machata1:19.002003-01-29mm03r119.zip - 151
MAP04: The Garden TerminalJakub Machata1:20.002003-04-03he04-120.zip - 148
MAP04: The Garden TerminalJakub Machata1:24.002003-03-21he04-124.zip - 161
MAP04: The Garden TerminalJakub Machata1:26.002003-03-20he04-126.zip - 153
MAP04: The Garden TerminalJakub Machata1:32.002003-01-10he04-132.zip - 137
MAP03: The DumpsterJakub Machata2:03.002003-04-29he03-203.zip - 262
MAP02: Gateway LabJakub Machata2:10.002003-07-12he02-210.zip - 300
MAP03: The DumpsterJakub Machata2:10.002003-04-14he03-210.zip - 142
MAP02: Gateway LabJakub Machata2:28.002003-04-03he02-228.zip - 164
MAP03: Cargo DepotJakub Machata2:32.002003-07-01ar03-232.zip - 240
MAP17: Processing AreaJakub Machata2:36.002003-07-05er17-236.zip - 242
MAP02: Gateway LabJakub Machata2:40.002003-02-19he02-240.zip - 148
MAP03: Cargo DepotJakub Machata2:44.002003-04-26ar03-244.zip - 139
MAP03: Cargo DepotJakub Machata2:49.002003-04-14ar03-249.zip - 141
MAP03: Cargo DepotJakub Machata3:28.002003-04-07ar03-328.zip - 138
MAP04: SeclusionJakub Machata3:44.002003-04-26ar04-344.zip - 237
MAP04: SeclusionJakub Machata3:50.002003-04-14ar04-350.zip - 140
MAP04: SeclusionJakub Machata5:06.002003-04-06ar04-506.zip - 161
Remove: wad | map | category | player | all